sensor_id;sensor_type;location;lat;lon;timestamp;P1;durP1;ratioP1;P2;durP2;ratioP2
74269;SDS011;62754;48.252;11.654;2023-08-12T00:00:10;4.38;;;3.03;;
74269;SDS011;62754;48.252;11.654;2023-08-12T00:02:39;5.57;;;2.80;;
74269;SDS011;62754;48.252;11.654;2023-08-12T00:05:13;4.38;;;2.90;;
74269;SDS011;62754;48.252;11.654;2023-08-12T00:07:39;3.92;;;2.78;;
74269;SDS011;62754;48.252;11.654;2023-08-12T00:10:06;5.40;;;2.90;;
74269;SDS011;62754;48.252;11.654;2023-08-12T00:14:58;7.05;;;3.03;;
74269;SDS011;62754;48.252;11.654;2023-08-12T00:17:25;4.70;;;3.00;;
74269;SDS011;62754;48.252;11.654;2023-08-12T00:19:53;6.22;;;3.00;;
74269;SDS011;62754;48.252;11.654;2023-08-12T00:22:21;7.82;;;3.00;;
74269;SDS011;62754;48.252;11.654;2023-08-12T00:24:52;5.63;;;2.95;;
74269;SDS011;62754;48.252;11.654;2023-08-12T00:27:18;6.00;;;2.75;;
74269;SDS011;62754;48.252;11.654;2023-08-12T00:29:48;5.40;;;2.92;;
74269;SDS011;62754;48.252;11.654;2023-08-12T00:32:16;5.63;;;3.22;;
74269;SDS011;62754;48.252;11.654;2023-08-12T00:34:42;5.50;;;3.08;;
74269;SDS011;62754;48.252;11.654;2023-08-12T00:37:08;5.18;;;2.95;;
74269;SDS011;62754;48.252;11.654;2023-08-12T00:39:36;4.75;;;3.40;;
74269;SDS011;62754;48.252;11.654;2023-08-12T00:42:02;4.13;;;2.90;;
74269;SDS011;62754;48.252;11.654;2023-08-12T00:44:28;5.53;;;2.92;;
74269;SDS011;62754;48.252;11.654;2023-08-12T00:46:58;6.03;;;3.03;;
74269;SDS011;62754;48.252;11.654;2023-08-12T00:49:25;5.45;;;3.22;;
74269;SDS011;62754;48.252;11.654;2023-08-12T00:51:56;5.90;;;3.15;;
74269;SDS011;62754;48.252;11.654;2023-08-12T00:54:22;4.40;;;2.70;;
74269;SDS011;62754;48.252;11.654;2023-08-12T00:56:51;5.18;;;3.10;;
74269;SDS011;62754;48.252;11.654;2023-08-12T00:59:19;4.80;;;2.95;;
74269;SDS011;62754;48.252;11.654;2023-08-12T01:01:47;3.97;;;2.83;;
74269;SDS011;62754;48.252;11.654;2023-08-12T01:04:16;5.38;;;3.00;;
74269;SDS011;62754;48.252;11.654;2023-08-12T01:06:42;4.13;;;2.92;;
74269;SDS011;62754;48.252;11.654;2023-08-12T01:09:10;5.60;;;3.50;;
74269;SDS011;62754;48.252;11.654;2023-08-12T01:11:39;6.82;;;2.90;;
74269;SDS011;62754;48.252;11.654;2023-08-12T01:16:46;4.78;;;3.20;;
74269;SDS011;62754;48.252;11.654;2023-08-12T01:19:24;4.70;;;3.00;;
74269;SDS011;62754;48.252;11.654;2023-08-12T01:21:57;4.68;;;3.05;;
74269;SDS011;62754;48.252;11.654;2023-08-12T01:24:31;3.95;;;2.55;;
74269;SDS011;62754;48.252;11.654;2023-08-12T01:27:04;5.25;;;2.80;;
74269;SDS011;62754;48.252;11.654;2023-08-12T01:29:31;5.10;;;3.15;;
74269;SDS011;62754;48.252;11.654;2023-08-12T01:37:14;4.50;;;2.53;;
74269;SDS011;62754;48.252;11.654;2023-08-12T01:39:51;5.10;;;2.85;;
74269;SDS011;62754;48.252;11.654;2023-08-12T01:42:19;5.03;;;3.20;;
74269;SDS011;62754;48.252;11.654;2023-08-12T01:44:51;4.95;;;2.92;;
74269;SDS011;62754;48.252;11.654;2023-08-12T01:47:17;5.57;;;3.08;;
74269;SDS011;62754;48.252;11.654;2023-08-12T01:49:48;5.30;;;3.30;;
74269;SDS011;62754;48.252;11.654;2023-08-12T01:52:13;4.18;;;2.92;;
74269;SDS011;62754;48.252;11.654;2023-08-12T01:54:39;5.38;;;2.90;;
74269;SDS011;62754;48.252;11.654;2023-08-12T01:57:05;5.30;;;3.22;;
74269;SDS011;62754;48.252;11.654;2023-08-12T01:59:31;4.90;;;3.50;;
74269;SDS011;62754;48.252;11.654;2023-08-12T02:01:57;4.88;;;3.38;;
74269;SDS011;62754;48.252;11.654;2023-08-12T02:04:23;6.88;;;3.17;;
74269;SDS011;62754;48.252;11.654;2023-08-12T02:06:51;6.70;;;4.00;;
74269;SDS011;62754;48.252;11.654;2023-08-12T02:09:17;5.20;;;3.60;;
74269;SDS011;62754;48.252;11.654;2023-08-12T02:11:43;4.65;;;3.42;;
74269;SDS011;62754;48.252;11.654;2023-08-12T02:14:11;5.55;;;4.00;;
74269;SDS011;62754;48.252;11.654;2023-08-12T02:16:37;5.53;;;3.28;;
74269;SDS011;62754;48.252;11.654;2023-08-12T02:19:02;5.60;;;4.18;;
74269;SDS011;62754;48.252;11.654;2023-08-12T02:21:28;4.70;;;3.65;;
74269;SDS011;62754;48.252;11.654;2023-08-12T02:23:56;7.80;;;4.10;;
74269;SDS011;62754;48.252;11.654;2023-08-12T02:26:25;5.32;;;3.78;;
74269;SDS011;62754;48.252;11.654;2023-08-12T02:28:50;5.95;;;3.78;;
74269;SDS011;62754;48.252;11.654;2023-08-12T02:31:19;5.88;;;3.78;;
74269;SDS011;62754;48.252;11.654;2023-08-12T02:33:47;8.55;;;4.50;;
74269;SDS011;62754;48.252;11.654;2023-08-12T02:36:12;5.43;;;4.38;;
74269;SDS011;62754;48.252;11.654;2023-08-12T02:38:41;6.00;;;4.28;;
74269;SDS011;62754;48.252;11.654;2023-08-12T02:41:09;9.68;;;4.78;;
74269;SDS011;62754;48.252;11.654;2023-08-12T02:43:37;6.25;;;4.53;;
74269;SDS011;62754;48.252;11.654;2023-08-12T02:46:03;6.22;;;4.63;;
74269;SDS011;62754;48.252;11.654;2023-08-12T02:48:28;5.72;;;4.20;;
74269;SDS011;62754;48.252;11.654;2023-08-12T02:50:59;6.78;;;4.88;;
74269;SDS011;62754;48.252;11.654;2023-08-12T02:53:26;7.05;;;4.70;;
74269;SDS011;62754;48.252;11.654;2023-08-12T02:55:54;8.10;;;4.95;;
74269;SDS011;62754;48.252;11.654;2023-08-12T02:58:22;6.35;;;4.93;;
74269;SDS011;62754;48.252;11.654;2023-08-12T03:00:57;7.25;;;5.45;;
74269;SDS011;62754;48.252;11.654;2023-08-12T03:03:23;6.32;;;4.57;;
74269;SDS011;62754;48.252;11.654;2023-08-12T03:05:51;7.88;;;4.88;;
74269;SDS011;62754;48.252;11.654;2023-08-12T03:08:17;5.90;;;4.43;;
74269;SDS011;62754;48.252;11.654;2023-08-12T03:10:44;6.90;;;4.32;;
74269;SDS011;62754;48.252;11.654;2023-08-12T03:13:10;6.15;;;4.10;;
74269;SDS011;62754;48.252;11.654;2023-08-12T03:15:38;6.07;;;4.38;;
74269;SDS011;62754;48.252;11.654;2023-08-12T03:18:06;7.85;;;5.07;;
74269;SDS011;62754;48.252;11.654;2023-08-12T03:20:32;6.78;;;4.70;;
74269;SDS011;62754;48.252;11.654;2023-08-12T03:22:58;6.55;;;5.00;;
74269;SDS011;62754;48.252;11.654;2023-08-12T03:25:26;6.85;;;5.20;;
74269;SDS011;62754;48.252;11.654;2023-08-12T03:27:54;6.43;;;4.60;;
74269;SDS011;62754;48.252;11.654;2023-08-12T03:30:19;7.32;;;4.78;;
74269;SDS011;62754;48.252;11.654;2023-08-12T03:32:47;6.93;;;4.97;;
74269;SDS011;62754;48.252;11.654;2023-08-12T03:35:15;8.40;;;4.55;;
74269;SDS011;62754;48.252;11.654;2023-08-12T03:37:41;7.03;;;4.72;;
74269;SDS011;62754;48.252;11.654;2023-08-12T03:40:07;6.22;;;4.43;;
74269;SDS011;62754;48.252;11.654;2023-08-12T03:42:33;7.35;;;5.10;;
74269;SDS011;62754;48.252;11.654;2023-08-12T03:45:01;7.22;;;4.93;;
74269;SDS011;62754;48.252;11.654;2023-08-12T03:47:27;6.85;;;5.15;;
74269;SDS011;62754;48.252;11.654;2023-08-12T03:49:53;8.00;;;4.85;;
74269;SDS011;62754;48.252;11.654;2023-08-12T03:52:19;6.82;;;4.88;;
74269;SDS011;62754;48.252;11.654;2023-08-12T03:54:45;5.85;;;4.43;;
74269;SDS011;62754;48.252;11.654;2023-08-12T03:57:13;6.00;;;4.15;;
74269;SDS011;62754;48.252;11.654;2023-08-12T03:59:38;8.05;;;4.82;;
74269;SDS011;62754;48.252;11.654;2023-08-12T04:02:04;6.45;;;5.00;;
74269;SDS011;62754;48.252;11.654;2023-08-12T04:04:32;9.18;;;4.53;;
74269;SDS011;62754;48.252;11.654;2023-08-12T04:06:58;8.30;;;5.22;;
74269;SDS011;62754;48.252;11.654;2023-08-12T04:09:23;7.47;;;4.65;;
74269;SDS011;62754;48.252;11.654;2023-08-12T04:11:51;6.25;;;4.53;;
74269;SDS011;62754;48.252;11.654;2023-08-12T04:14:17;6.45;;;4.80;;
74269;SDS011;62754;48.252;11.654;2023-08-12T04:16:43;6.10;;;4.00;;
74269;SDS011;62754;48.252;11.654;2023-08-12T04:19:13;7.03;;;4.45;;
74269;SDS011;62754;48.252;11.654;2023-08-12T04:21:39;6.35;;;4.43;;
74269;SDS011;62754;48.252;11.654;2023-08-12T04:24:07;7.10;;;4.70;;
74269;SDS011;62754;48.252;11.654;2023-08-12T04:26:33;5.07;;;4.13;;
74269;SDS011;62754;48.252;11.654;2023-08-12T04:29:02;6.25;;;4.25;;
74269;SDS011;62754;48.252;11.654;2023-08-12T04:31:30;7.53;;;4.18;;
74269;SDS011;62754;48.252;11.654;2023-08-12T04:33:58;6.63;;;4.90;;
74269;SDS011;62754;48.252;11.654;2023-08-12T04:36:28;7.03;;;4.82;;
74269;SDS011;62754;48.252;11.654;2023-08-12T04:38:57;5.47;;;4.28;;
74269;SDS011;62754;48.252;11.654;2023-08-12T04:41:23;6.68;;;4.78;;
74269;SDS011;62754;48.252;11.654;2023-08-12T04:43:48;7.22;;;4.35;;
74269;SDS011;62754;48.252;11.654;2023-08-12T04:46:17;5.78;;;4.05;;
74269;SDS011;62754;48.252;11.654;2023-08-12T04:48:43;6.03;;;4.10;;
74269;SDS011;62754;48.252;11.654;2023-08-12T04:51:11;7.28;;;4.75;;
74269;SDS011;62754;48.252;11.654;2023-08-12T04:53:39;5.95;;;3.85;;
74269;SDS011;62754;48.252;11.654;2023-08-12T04:56:04;6.60;;;4.22;;
74269;SDS011;62754;48.252;11.654;2023-08-12T04:58:32;7.47;;;4.60;;
74269;SDS011;62754;48.252;11.654;2023-08-12T05:00:58;7.88;;;4.32;;
74269;SDS011;62754;48.252;11.654;2023-08-12T05:03:26;7.03;;;4.35;;
74269;SDS011;62754;48.252;11.654;2023-08-12T05:05:54;5.70;;;4.47;;
74269;SDS011;62754;48.252;11.654;2023-08-12T05:08:24;7.72;;;4.70;;
74269;SDS011;62754;48.252;11.654;2023-08-12T05:10:50;6.68;;;4.65;;
74269;SDS011;62754;48.252;11.654;2023-08-12T05:13:16;5.75;;;4.03;;
74269;SDS011;62754;48.252;11.654;2023-08-12T05:15:47;6.30;;;4.60;;
74269;SDS011;62754;48.252;11.654;2023-08-12T05:18:15;7.57;;;5.03;;
74269;SDS011;62754;48.252;11.654;2023-08-12T05:20:41;6.70;;;4.53;;
74269;SDS011;62754;48.252;11.654;2023-08-12T05:23:10;6.45;;;4.60;;
74269;SDS011;62754;48.252;11.654;2023-08-12T05:25:38;6.20;;;4.40;;
74269;SDS011;62754;48.252;11.654;2023-08-12T05:28:04;7.78;;;4.95;;
74269;SDS011;62754;48.252;11.654;2023-08-12T05:30:32;7.75;;;4.82;;
74269;SDS011;62754;48.252;11.654;2023-08-12T05:32:58;6.57;;;4.43;;
74269;SDS011;62754;48.252;11.654;2023-08-12T05:35:24;5.97;;;4.55;;
74269;SDS011;62754;48.252;11.654;2023-08-12T05:37:50;6.43;;;4.43;;
74269;SDS011;62754;48.252;11.654;2023-08-12T05:40:19;7.25;;;4.60;;
74269;SDS011;62754;48.252;11.654;2023-08-12T05:42:47;6.05;;;4.20;;
74269;SDS011;62754;48.252;11.654;2023-08-12T05:45:12;7.18;;;4.88;;
74269;SDS011;62754;48.252;11.654;2023-08-12T05:47:43;6.32;;;4.80;;
74269;SDS011;62754;48.252;11.654;2023-08-12T05:50:09;6.88;;;5.03;;
74269;SDS011;62754;48.252;11.654;2023-08-12T05:52:37;6.78;;;4.45;;
74269;SDS011;62754;48.252;11.654;2023-08-12T05:55:06;5.35;;;4.00;;
74269;SDS011;62754;48.252;11.654;2023-08-12T05:57:32;6.70;;;4.20;;
74269;SDS011;62754;48.252;11.654;2023-08-12T05:59:57;6.63;;;4.70;;
74269;SDS011;62754;48.252;11.654;2023-08-12T06:02:24;6.90;;;4.40;;
74269;SDS011;62754;48.252;11.654;2023-08-12T06:04:52;5.13;;;3.92;;
74269;SDS011;62754;48.252;11.654;2023-08-12T06:07:18;7.13;;;4.82;;
74269;SDS011;62754;48.252;11.654;2023-08-12T06:09:47;8.45;;;4.32;;
74269;SDS011;62754;48.252;11.654;2023-08-12T06:12:15;7.88;;;4.82;;
74269;SDS011;62754;48.252;11.654;2023-08-12T06:14:42;4.95;;;4.13;;
74269;SDS011;62754;48.252;11.654;2023-08-12T06:17:08;5.47;;;4.13;;
74269;SDS011;62754;48.252;11.654;2023-08-12T06:19:36;7.20;;;4.45;;
74269;SDS011;62754;48.252;11.654;2023-08-12T06:22:02;5.15;;;3.78;;
74269;SDS011;62754;48.252;11.654;2023-08-12T06:24:30;7.50;;;4.40;;
74269;SDS011;62754;48.252;11.654;2023-08-12T06:26:58;4.57;;;3.30;;
74269;SDS011;62754;48.252;11.654;2023-08-12T06:29:24;4.93;;;3.58;;
74269;SDS011;62754;48.252;11.654;2023-08-12T06:31:52;4.95;;;3.60;;
74269;SDS011;62754;48.252;11.654;2023-08-12T06:34:20;5.90;;;3.40;;
74269;SDS011;62754;48.252;11.654;2023-08-12T06:36:48;5.50;;;3.60;;
74269;SDS011;62754;48.252;11.654;2023-08-12T06:39:14;5.07;;;3.50;;
74269;SDS011;62754;48.252;11.654;2023-08-12T06:41:41;5.80;;;3.60;;
74269;SDS011;62754;48.252;11.654;2023-08-12T06:44:09;4.10;;;3.00;;
74269;SDS011;62754;48.252;11.654;2023-08-12T06:46:35;6.28;;;3.05;;
74269;SDS011;62754;48.252;11.654;2023-08-12T06:49:01;4.38;;;2.95;;
74269;SDS011;62754;48.252;11.654;2023-08-12T06:51:26;5.05;;;3.33;;
74269;SDS011;62754;48.252;11.654;2023-08-12T06:53:52;6.65;;;2.88;;
74269;SDS011;62754;48.252;11.654;2023-08-12T06:56:20;5.63;;;3.28;;
74269;SDS011;62754;48.252;11.654;2023-08-12T06:58:48;4.40;;;2.90;;
74269;SDS011;62754;48.252;11.654;2023-08-12T07:01:14;4.68;;;2.92;;
74269;SDS011;62754;48.252;11.654;2023-08-12T07:03:42;4.82;;;3.15;;
74269;SDS011;62754;48.252;11.654;2023-08-12T07:06:10;5.32;;;3.30;;
74269;SDS011;62754;48.252;11.654;2023-08-12T07:08:36;6.53;;;3.05;;
74269;SDS011;62754;48.252;11.654;2023-08-12T07:11:01;7.80;;;3.10;;
74269;SDS011;62754;48.252;11.654;2023-08-12T07:13:27;5.63;;;3.42;;
74269;SDS011;62754;48.252;11.654;2023-08-12T07:15:53;5.40;;;3.70;;
74269;SDS011;62754;48.252;11.654;2023-08-12T07:18:19;5.82;;;4.00;;
74269;SDS011;62754;48.252;11.654;2023-08-12T07:20:44;4.93;;;3.58;;
74269;SDS011;62754;48.252;11.654;2023-08-12T07:23:10;4.63;;;3.03;;
74269;SDS011;62754;48.252;11.654;2023-08-12T07:25:37;3.88;;;2.83;;
74269;SDS011;62754;48.252;11.654;2023-08-12T07:28:05;4.57;;;2.88;;
74269;SDS011;62754;48.252;11.654;2023-08-12T07:30:35;5.20;;;2.90;;
74269;SDS011;62754;48.252;11.654;2023-08-12T07:33:04;4.85;;;2.80;;
74269;SDS011;62754;48.252;11.654;2023-08-12T07:35:30;5.60;;;2.80;;
74269;SDS011;62754;48.252;11.654;2023-08-12T07:37:56;3.83;;;2.72;;
74269;SDS011;62754;48.252;11.654;2023-08-12T07:40:22;6.95;;;4.43;;
74269;SDS011;62754;48.252;11.654;2023-08-12T07:42:50;4.50;;;2.78;;
74269;SDS011;62754;48.252;11.654;2023-08-12T07:45:15;4.63;;;3.13;;
74269;SDS011;62754;48.252;11.654;2023-08-12T07:47:41;4.20;;;2.70;;
74269;SDS011;62754;48.252;11.654;2023-08-12T07:50:11;5.43;;;2.80;;
74269;SDS011;62754;48.252;11.654;2023-08-12T07:52:37;3.80;;;2.60;;
74269;SDS011;62754;48.252;11.654;2023-08-12T07:55:06;5.32;;;2.58;;
74269;SDS011;62754;48.252;11.654;2023-08-12T07:57:32;4.63;;;3.22;;
74269;SDS011;62754;48.252;11.654;2023-08-12T07:59:58;3.47;;;2.80;;
74269;SDS011;62754;48.252;11.654;2023-08-12T08:02:28;6.45;;;3.78;;
74269;SDS011;62754;48.252;11.654;2023-08-12T08:04:53;3.83;;;2.63;;
74269;SDS011;62754;48.252;11.654;2023-08-12T08:07:24;4.47;;;2.40;;
74269;SDS011;62754;48.252;11.654;2023-08-12T08:09:52;4.28;;;2.90;;
74269;SDS011;62754;48.252;11.654;2023-08-12T08:12:18;6.25;;;2.60;;
74269;SDS011;62754;48.252;11.654;2023-08-12T08:14:44;5.05;;;2.70;;
74269;SDS011;62754;48.252;11.654;2023-08-12T08:17:10;4.20;;;2.70;;
74269;SDS011;62754;48.252;11.654;2023-08-12T08:19:38;5.00;;;2.63;;
74269;SDS011;62754;48.252;11.654;2023-08-12T08:22:06;3.92;;;2.42;;
74269;SDS011;62754;48.252;11.654;2023-08-12T08:24:34;3.85;;;2.40;;
74269;SDS011;62754;48.252;11.654;2023-08-12T08:27:01;4.63;;;2.45;;
74269;SDS011;62754;48.252;11.654;2023-08-12T08:29:27;4.25;;;2.80;;
74269;SDS011;62754;48.252;11.654;2023-08-12T08:31:53;4.63;;;2.60;;
74269;SDS011;62754;48.252;11.654;2023-08-12T08:34:19;3.78;;;2.63;;
74269;SDS011;62754;48.252;11.654;2023-08-12T08:36:44;5.78;;;2.75;;
74269;SDS011;62754;48.252;11.654;2023-08-12T08:41:40;7.70;;;5.18;;
74269;SDS011;62754;48.252;11.654;2023-08-12T08:44:09;3.95;;;2.50;;
74269;SDS011;62754;48.252;11.654;2023-08-12T08:46:43;4.65;;;2.30;;
74269;SDS011;62754;48.252;11.654;2023-08-12T08:49:11;4.75;;;2.80;;
74269;SDS011;62754;48.252;11.654;2023-08-12T08:51:42;3.50;;;2.20;;
74269;SDS011;62754;48.252;11.654;2023-08-12T08:54:08;3.50;;;2.58;;
74269;SDS011;62754;48.252;11.654;2023-08-12T08:56:37;3.92;;;2.50;;
74269;SDS011;62754;48.252;11.654;2023-08-12T09:01:32;3.33;;;2.35;;
74269;SDS011;62754;48.252;11.654;2023-08-12T09:04:01;4.80;;;2.60;;
74269;SDS011;62754;48.252;11.654;2023-08-12T09:06:28;4.13;;;2.40;;
74269;SDS011;62754;48.252;11.654;2023-08-12T09:08:55;4.13;;;2.53;;
74269;SDS011;62754;48.252;11.654;2023-08-12T09:11:21;5.10;;;2.70;;
74269;SDS011;62754;48.252;11.654;2023-08-12T09:13:52;5.03;;;2.85;;
74269;SDS011;62754;48.252;11.654;2023-08-12T09:16:20;4.03;;;2.70;;
74269;SDS011;62754;48.252;11.654;2023-08-12T09:18:46;3.97;;;2.60;;
74269;SDS011;62754;48.252;11.654;2023-08-12T09:21:11;4.07;;;2.97;;
74269;SDS011;62754;48.252;11.654;2023-08-12T09:23:41;5.70;;;2.80;;
74269;SDS011;62754;48.252;11.654;2023-08-12T09:26:15;4.82;;;2.70;;
74269;SDS011;62754;48.252;11.654;2023-08-12T09:28:42;6.03;;;4.00;;
74269;SDS011;62754;48.252;11.654;2023-08-12T09:33:46;5.05;;;3.17;;
74269;SDS011;62754;48.252;11.654;2023-08-12T09:36:15;5.28;;;2.92;;
74269;SDS011;62754;48.252;11.654;2023-08-12T09:38:43;6.88;;;4.32;;
74269;SDS011;62754;48.252;11.654;2023-08-12T09:41:09;4.43;;;2.63;;
74269;SDS011;62754;48.252;11.654;2023-08-12T09:43:39;4.03;;;2.58;;
74269;SDS011;62754;48.252;11.654;2023-08-12T09:46:14;4.43;;;2.83;;
74269;SDS011;62754;48.252;11.654;2023-08-12T09:48:42;3.60;;;2.70;;
74269;SDS011;62754;48.252;11.654;2023-08-12T09:51:13;3.47;;;2.83;;
74269;SDS011;62754;48.252;11.654;2023-08-12T09:53:39;6.68;;;3.28;;
74269;SDS011;62754;48.252;11.654;2023-08-12T09:56:07;4.25;;;2.70;;
74269;SDS011;62754;48.252;11.654;2023-08-12T09:58:37;4.78;;;2.90;;
74269;SDS011;62754;48.252;11.654;2023-08-12T10:01:04;3.65;;;2.70;;
74269;SDS011;62754;48.252;11.654;2023-08-12T10:03:32;4.32;;;2.60;;
74269;SDS011;62754;48.252;11.654;2023-08-12T10:06:01;4.95;;;2.63;;
74269;SDS011;62754;48.252;11.654;2023-08-12T10:08:27;4.25;;;2.88;;
74269;SDS011;62754;48.252;11.654;2023-08-12T10:10:53;3.40;;;2.50;;
74269;SDS011;62754;48.252;11.654;2023-08-12T10:13:21;6.03;;;4.70;;
74269;SDS011;62754;48.252;11.654;2023-08-12T10:15:47;4.47;;;2.65;;
74269;SDS011;62754;48.252;11.654;2023-08-12T10:18:13;4.65;;;2.80;;
74269;SDS011;62754;48.252;11.654;2023-08-12T10:20:45;4.25;;;2.45;;
74269;SDS011;62754;48.252;11.654;2023-08-12T10:23:16;4.25;;;2.80;;
74269;SDS011;62754;48.252;11.654;2023-08-12T10:25:45;4.20;;;2.70;;
74269;SDS011;62754;48.252;11.654;2023-08-12T10:28:12;4.22;;;2.70;;
74269;SDS011;62754;48.252;11.654;2023-08-12T10:30:39;3.88;;;2.60;;
74269;SDS011;62754;48.252;11.654;2023-08-12T10:33:08;4.50;;;3.30;;
74269;SDS011;62754;48.252;11.654;2023-08-12T10:35:42;3.78;;;2.83;;
74269;SDS011;62754;48.252;11.654;2023-08-12T10:38:11;3.45;;;2.50;;
74269;SDS011;62754;48.252;11.654;2023-08-12T10:40:39;3.60;;;2.42;;
74269;SDS011;62754;48.252;11.654;2023-08-12T10:43:09;4.13;;;2.47;;
74269;SDS011;62754;48.252;11.654;2023-08-12T10:50:34;4.65;;;2.70;;
74269;SDS011;62754;48.252;11.654;2023-08-12T10:53:20;7.40;;;3.67;;
74269;SDS011;62754;48.252;11.654;2023-08-12T10:55:58;4.95;;;3.30;;
74269;SDS011;62754;48.252;11.654;2023-08-12T10:58:30;3.17;;;2.33;;
74269;SDS011;62754;48.252;11.654;2023-08-12T11:01:01;3.75;;;2.53;;
74269;SDS011;62754;48.252;11.654;2023-08-12T11:03:31;4.40;;;2.70;;
74269;SDS011;62754;48.252;11.654;2023-08-12T11:05:57;4.00;;;2.33;;
74269;SDS011;62754;48.252;11.654;2023-08-12T11:08:27;3.42;;;2.13;;
74269;SDS011;62754;48.252;11.654;2023-08-12T11:10:57;3.17;;;2.00;;
74269;SDS011;62754;48.252;11.654;2023-08-12T11:13:27;3.50;;;2.38;;
74269;SDS011;62754;48.252;11.654;2023-08-12T11:16:07;3.28;;;2.20;;
74269;SDS011;62754;48.252;11.654;2023-08-12T11:18:37;3.80;;;2.42;;
74269;SDS011;62754;48.252;11.654;2023-08-12T11:21:03;3.88;;;2.72;;
74269;SDS011;62754;48.252;11.654;2023-08-12T11:23:30;4.07;;;2.38;;
74269;SDS011;62754;48.252;11.654;2023-08-12T11:25:55;3.83;;;2.67;;
74269;SDS011;62754;48.252;11.654;2023-08-12T11:28:26;4.35;;;2.47;;
74269;SDS011;62754;48.252;11.654;2023-08-12T11:30:55;4.30;;;2.50;;
74269;SDS011;62754;48.252;11.654;2023-08-12T11:33:21;4.85;;;2.45;;
74269;SDS011;62754;48.252;11.654;2023-08-12T11:35:46;3.55;;;2.65;;
74269;SDS011;62754;48.252;11.654;2023-08-12T11:38:15;3.88;;;2.67;;
74269;SDS011;62754;48.252;11.654;2023-08-12T11:40:43;3.33;;;2.35;;
74269;SDS011;62754;48.252;11.654;2023-08-12T11:43:11;3.50;;;2.70;;
74269;SDS011;62754;48.252;11.654;2023-08-12T11:45:41;3.50;;;2.20;;
74269;SDS011;62754;48.252;11.654;2023-08-12T11:48:07;4.40;;;2.47;;
74269;SDS011;62754;48.252;11.654;2023-08-12T11:50:35;3.05;;;2.35;;
74269;SDS011;62754;48.252;11.654;2023-08-12T11:53:01;3.97;;;2.42;;
74269;SDS011;62754;48.252;11.654;2023-08-12T11:55:27;4.28;;;2.40;;
74269;SDS011;62754;48.252;11.654;2023-08-12T11:57:53;4.78;;;2.65;;
74269;SDS011;62754;48.252;11.654;2023-08-12T12:00:19;5.38;;;3.13;;
74269;SDS011;62754;48.252;11.654;2023-08-12T12:02:46;6.40;;;2.70;;
74269;SDS011;62754;48.252;11.654;2023-08-12T12:05:13;4.70;;;2.55;;
74269;SDS011;62754;48.252;11.654;2023-08-12T12:07:43;7.15;;;2.47;;
74269;SDS011;62754;48.252;11.654;2023-08-12T12:10:12;3.95;;;2.35;;
74269;SDS011;62754;48.252;11.654;2023-08-12T12:12:38;2.67;;;2.00;;
74269;SDS011;62754;48.252;11.654;2023-08-12T12:15:06;5.45;;;2.67;;
74269;SDS011;62754;48.252;11.654;2023-08-12T12:17:32;3.25;;;2.30;;
74269;SDS011;62754;48.252;11.654;2023-08-12T12:20:00;3.45;;;2.30;;
74269;SDS011;62754;48.252;11.654;2023-08-12T12:22:27;4.13;;;2.35;;
74269;SDS011;62754;48.252;11.654;2023-08-12T12:25:00;3.03;;;2.05;;
74269;SDS011;62754;48.252;11.654;2023-08-12T12:27:30;4.63;;;2.30;;
74269;SDS011;62754;48.252;11.654;2023-08-12T12:29:56;3.05;;;2.10;;
74269;SDS011;62754;48.252;11.654;2023-08-12T12:32:24;4.45;;;2.30;;
74269;SDS011;62754;48.252;11.654;2023-08-12T12:34:50;3.53;;;1.80;;
74269;SDS011;62754;48.252;11.654;2023-08-12T12:37:16;4.53;;;2.13;;
74269;SDS011;62754;48.252;11.654;2023-08-12T12:39:41;4.78;;;2.10;;
74269;SDS011;62754;48.252;11.654;2023-08-12T12:42:11;3.47;;;2.10;;
74269;SDS011;62754;48.252;11.654;2023-08-12T12:44:37;3.38;;;2.17;;
74269;SDS011;62754;48.252;11.654;2023-08-12T12:47:05;3.28;;;2.30;;
74269;SDS011;62754;48.252;11.654;2023-08-12T12:49:33;4.13;;;2.13;;
74269;SDS011;62754;48.252;11.654;2023-08-12T12:51:59;3.17;;;2.17;;
74269;SDS011;62754;48.252;11.654;2023-08-12T12:54:26;3.38;;;2.10;;
74269;SDS011;62754;48.252;11.654;2023-08-12T12:56:52;3.35;;;2.00;;
74269;SDS011;62754;48.252;11.654;2023-08-12T12:59:20;3.95;;;2.00;;
74269;SDS011;62754;48.252;11.654;2023-08-12T13:01:46;6.65;;;2.03;;
74269;SDS011;62754;48.252;11.654;2023-08-12T13:04:12;3.10;;;2.20;;
74269;SDS011;62754;48.252;11.654;2023-08-12T13:06:40;6.20;;;2.30;;
74269;SDS011;62754;48.252;11.654;2023-08-12T13:09:15;2.92;;;1.80;;
74269;SDS011;62754;48.252;11.654;2023-08-12T13:11:43;3.70;;;2.08;;
74269;SDS011;62754;48.252;11.654;2023-08-12T13:14:11;3.40;;;2.15;;
74269;SDS011;62754;48.252;11.654;2023-08-12T13:16:37;2.65;;;1.88;;
74269;SDS011;62754;48.252;11.654;2023-08-12T13:19:03;4.18;;;2.17;;
74269;SDS011;62754;48.252;11.654;2023-08-12T13:21:31;2.85;;;2.08;;
74269;SDS011;62754;48.252;11.654;2023-08-12T13:24:02;4.03;;;2.38;;
74269;SDS011;62754;48.252;11.654;2023-08-12T13:26:27;5.35;;;2.22;;
74269;SDS011;62754;48.252;11.654;2023-08-12T13:28:55;2.95;;;2.10;;
74269;SDS011;62754;48.252;11.654;2023-08-12T13:31:21;3.90;;;2.55;;
74269;SDS011;62754;48.252;11.654;2023-08-12T13:33:49;5.95;;;3.30;;
74269;SDS011;62754;48.252;11.654;2023-08-12T13:36:17;4.05;;;2.03;;
74269;SDS011;62754;48.252;11.654;2023-08-12T13:38:48;3.85;;;2.28;;
74269;SDS011;62754;48.252;11.654;2023-08-12T13:41:16;3.80;;;2.20;;
74269;SDS011;62754;48.252;11.654;2023-08-12T13:43:41;2.85;;;1.90;;
74269;SDS011;62754;48.252;11.654;2023-08-12T13:46:10;6.38;;;2.78;;
74269;SDS011;62754;48.252;11.654;2023-08-12T13:48:38;4.43;;;2.08;;
74269;SDS011;62754;48.252;11.654;2023-08-12T13:51:03;2.60;;;1.85;;
74269;SDS011;62754;48.252;11.654;2023-08-12T13:53:29;3.00;;;1.92;;
74269;SDS011;62754;48.252;11.654;2023-08-12T13:55:57;4.30;;;2.38;;
74269;SDS011;62754;48.252;11.654;2023-08-12T13:58:23;3.50;;;1.90;;
74269;SDS011;62754;48.252;11.654;2023-08-12T14:00:53;3.13;;;1.92;;
74269;SDS011;62754;48.252;11.654;2023-08-12T14:03:23;2.92;;;2.10;;
74269;SDS011;62754;48.252;11.654;2023-08-12T14:05:52;6.10;;;1.90;;
74269;SDS011;62754;48.252;11.654;2023-08-12T14:08:17;3.10;;;2.10;;
74269;SDS011;62754;48.252;11.654;2023-08-12T14:10:45;7.38;;;2.22;;
74269;SDS011;62754;48.252;11.654;2023-08-12T14:13:13;3.75;;;2.00;;
74269;SDS011;62754;48.252;11.654;2023-08-12T14:15:41;4.03;;;1.95;;
74269;SDS011;62754;48.252;11.654;2023-08-12T14:18:09;4.28;;;2.00;;
74269;SDS011;62754;48.252;11.654;2023-08-12T14:20:35;3.42;;;1.98;;
74269;SDS011;62754;48.252;11.654;2023-08-12T14:23:04;6.00;;;2.00;;
74269;SDS011;62754;48.252;11.654;2023-08-12T14:25:29;3.20;;;1.70;;
74269;SDS011;62754;48.252;11.654;2023-08-12T14:27:57;4.47;;;2.00;;
74269;SDS011;62754;48.252;11.654;2023-08-12T14:30:25;3.78;;;1.77;;
74269;SDS011;62754;48.252;11.654;2023-08-12T14:32:53;4.15;;;2.35;;
74269;SDS011;62754;48.252;11.654;2023-08-12T14:35:19;4.18;;;2.08;;
74269;SDS011;62754;48.252;11.654;2023-08-12T14:37:45;3.63;;;1.80;;
74269;SDS011;62754;48.252;11.654;2023-08-12T14:40:13;4.88;;;2.17;;
74269;SDS011;62754;48.252;11.654;2023-08-12T14:42:39;5.35;;;2.58;;
74269;SDS011;62754;48.252;11.654;2023-08-12T14:45:07;4.20;;;2.15;;
74269;SDS011;62754;48.252;11.654;2023-08-12T14:47:33;6.80;;;2.92;;
74269;SDS011;62754;48.252;11.654;2023-08-12T14:49:59;3.00;;;2.20;;
74269;SDS011;62754;48.252;11.654;2023-08-12T14:52:25;6.53;;;2.25;;
74269;SDS011;62754;48.252;11.654;2023-08-12T14:54:53;6.35;;;2.17;;
74269;SDS011;62754;48.252;11.654;2023-08-12T14:57:19;3.80;;;2.50;;